マルセイユ の空港の天気 - METARとTAF

マルセイユ・プロヴァンス空港 ( LFML / MRS ) - フランス マルセイユ
飛行場実況気象(Metar)
観測時間01/16 19:30 CET (01/16 18:30 UTC)
風向・風速西北西 5m/s
視程10km以上
天気現象
なし
気温9℃
湿度34%
気圧1026hPa
METARLFML 161830Z AUTO 30009KT CAVOK 09/M06 Q1026 NOSIG
過去の天気等 Google飛行場航空写真 Wunderground天気予報

過去48時間のMETAR

飛行場予報(TAF)
発表時間: 1/16 15:00 CET (1/16 14:00 UTC)
予報対象時間: 16日16時 CET ~ 17日22時 CET
風向・風速北西 5m/s
視程10km以上
なし
17日4時 CET ~ 17日6時 CET に徐々に
風向・風速不定 3m/s
TAF LFML 161400Z 1615/1721 32010KT CAVOK TX11/1714Z TNM00/1704Z
BECMG 1703/1705 VRB05KT